createdAt,value
2022-10-08T00:01:24.025Z,100.00
2022-10-08T00:03:54.439Z,100.00
2022-10-08T00:06:31.287Z,100.00
2022-10-08T00:09:06.282Z,100.00
2022-10-08T00:11:37.443Z,100.00
2022-10-08T00:14:05.852Z,100.00
2022-10-08T00:16:37.070Z,100.00
2022-10-08T00:19:12.239Z,100.00
2022-10-08T00:21:43.972Z,100.00
2022-10-08T00:24:18.236Z,100.00
2022-10-08T00:26:45.718Z,100.00
2022-10-08T00:29:17.158Z,100.00
2022-10-08T00:31:47.345Z,100.00
2022-10-08T00:34:24.203Z,100.00
2022-10-08T00:36:54.550Z,100.00
2022-10-08T00:39:24.825Z,100.00
2022-10-08T00:41:55.936Z,100.00
2022-10-08T00:44:56.498Z,100.00
2022-10-08T00:47:32.422Z,100.00
2022-10-08T00:50:21.116Z,100.00
2022-10-08T00:52:58.575Z,100.00
2022-10-08T00:55:30.057Z,100.00
2022-10-08T00:58:09.790Z,100.00
2022-10-08T01:00:37.110Z,100.00
2022-10-08T01:03:04.564Z,100.00
2022-10-08T01:06:20.780Z,100.00
2022-10-08T01:09:19.335Z,100.00
2022-10-08T01:12:02.143Z,100.00
2022-10-08T01:14:32.205Z,100.00
2022-10-08T01:17:43.017Z,100.00
2022-10-08T01:20:31.796Z,100.00
2022-10-08T01:23:32.117Z,100.00
2022-10-08T01:26:27.140Z,100.00
2022-10-08T01:29:03.641Z,100.00
2022-10-08T01:31:55.401Z,100.00
2022-10-08T01:34:39.221Z,100.00
2022-10-08T01:37:11.703Z,100.00
2022-10-08T01:39:41.055Z,100.00
2022-10-08T01:42:10.529Z,100.00
2022-10-08T01:44:48.764Z,100.00
2022-10-08T01:47:27.976Z,100.00
2022-10-08T01:50:14.245Z,100.00
2022-10-08T01:52:50.900Z,100.00
2022-10-08T01:55:26.662Z,100.00
2022-10-08T01:57:58.054Z,100.00
2022-10-08T02:00:25.327Z,100.00
2022-10-08T02:02:55.626Z,100.00
2022-10-08T02:05:28.224Z,100.00
2022-10-08T02:07:55.810Z,100.00
2022-10-08T02:10:25.526Z,100.00
2022-10-08T02:12:53.075Z,100.00
2022-10-08T02:15:59.470Z,100.00
2022-10-08T02:18:45.357Z,100.00
2022-10-08T02:21:24.747Z,100.00
2022-10-08T02:24:05.179Z,100.00
2022-10-08T02:26:44.448Z,100.00
2022-10-08T02:29:41.619Z,100.00
2022-10-08T02:33:11.209Z,100.00
2022-10-08T02:35:51.436Z,100.00
2022-10-08T02:38:27.311Z,100.00
2022-10-08T02:41:00.123Z,100.00
2022-10-08T02:43:32.564Z,100.00
2022-10-08T02:46:15.840Z,100.00
2022-10-08T02:48:52.108Z,100.00
2022-10-08T02:51:21.046Z,100.00
2022-10-08T02:53:49.444Z,100.00
2022-10-08T02:56:33.694Z,100.00
2022-10-08T02:59:01.356Z,100.00
2022-10-08T03:02:05.352Z,100.00
2022-10-08T03:04:46.029Z,100.00
2022-10-08T03:07:15.593Z,100.00
2022-10-08T03:09:48.798Z,100.00
2022-10-08T03:12:16.084Z,100.00
2022-10-08T03:14:48.139Z,100.00
2022-10-08T03:17:24.921Z,100.00
2022-10-08T03:19:52.452Z,100.00
2022-10-08T03:22:19.984Z,100.00
2022-10-08T03:24:47.230Z,100.00
2022-10-08T03:27:14.602Z,100.00
2022-10-08T03:29:41.868Z,100.00
2022-10-08T03:32:09.649Z,100.00
2022-10-08T03:34:36.815Z,100.00
2022-10-08T03:37:04.641Z,100.00
2022-10-08T03:39:31.849Z,100.00
2022-10-08T03:41:59.106Z,100.00
2022-10-08T03:44:26.324Z,100.00
2022-10-08T03:46:53.493Z,100.00
2022-10-08T03:49:20.698Z,100.00
2022-10-08T03:51:47.911Z,100.00
2022-10-08T03:54:15.203Z,100.00
2022-10-08T03:56:42.471Z,100.00
2022-10-08T03:59:10.177Z,100.00
2022-10-08T04:01:37.590Z,100.00
2022-10-08T04:04:05.047Z,100.00
2022-10-08T04:06:32.776Z,100.00
2022-10-08T04:09:01.289Z,100.00
2022-10-08T04:11:30.134Z,100.00
2022-10-08T04:13:57.385Z,100.00
2022-10-08T04:16:24.596Z,100.00
2022-10-08T04:18:51.818Z,100.00
2022-10-08T04:21:19.886Z,100.00
2022-10-08T04:23:50.206Z,100.00
2022-10-08T04:26:18.425Z,100.00
2022-10-08T04:28:48.222Z,100.00
2022-10-08T04:31:18.957Z,100.00
2022-10-08T04:33:46.807Z,100.00
2022-10-08T04:36:18.216Z,100.00
2022-10-08T04:38:46.381Z,100.00
2022-10-08T04:41:23.858Z,100.00
2022-10-08T04:43:52.848Z,100.00
2022-10-08T04:46:22.310Z,100.00
2022-10-08T04:48:52.672Z,100.00
2022-10-08T04:51:22.807Z,100.00
2022-10-08T04:53:50.800Z,100.00
2022-10-08T04:56:21.459Z,100.00
2022-10-08T04:58:49.176Z,100.00
2022-10-08T05:01:19.639Z,100.00
2022-10-08T05:03:50.768Z,100.00
2022-10-08T05:06:22.643Z,100.00
2022-10-08T05:08:50.705Z,100.00
2022-10-08T05:11:19.504Z,100.00
2022-10-08T05:13:52.304Z,100.00
2022-10-08T05:16:20.763Z,100.00
2022-10-08T05:18:50.835Z,100.00
2022-10-08T05:21:31.051Z,100.00
2022-10-08T05:24:02.406Z,100.00
2022-10-08T05:26:57.466Z,100.00
2022-10-08T05:29:21.662Z,100.00
2022-10-08T05:31:48.863Z,100.00
2022-10-08T05:34:16.440Z,100.00
2022-10-08T05:36:43.678Z,100.00
2022-10-08T05:39:11.998Z,100.00
2022-10-08T05:41:39.286Z,100.00
2022-10-08T05:44:07.786Z,100.00
2022-10-08T05:46:37.478Z,100.00
2022-10-08T05:49:08.593Z,100.00
2022-10-08T05:51:36.496Z,100.00
2022-10-08T05:54:03.924Z,100.00
2022-10-08T05:56:31.803Z,100.00
2022-10-08T05:58:59.095Z,100.00
2022-10-08T06:01:32.208Z,100.00
2022-10-08T06:04:08.095Z,100.00
2022-10-08T06:06:38.114Z,100.00
2022-10-08T06:09:06.672Z,100.00
2022-10-08T06:11:36.991Z,100.00
2022-10-08T06:14:07.143Z,100.00
2022-10-08T06:16:35.615Z,100.00
2022-10-08T06:19:04.467Z,100.00
2022-10-08T06:21:32.792Z,100.00
2022-10-08T06:24:03.542Z,100.00
2022-10-08T06:26:36.227Z,95.16
2022-10-08T06:29:06.494Z,95.79
2022-10-08T06:31:35.898Z,87.40
2022-10-08T06:34:04.737Z,89.35
2022-10-08T06:36:34.539Z,95.52
2022-10-08T06:39:10.120Z,100.00
2022-10-08T06:41:38.205Z,100.00
2022-10-08T06:44:10.002Z,100.00
2022-10-08T06:46:37.484Z,100.00
2022-10-08T06:49:06.312Z,100.00
2022-10-08T06:51:34.335Z,100.00
2022-10-08T06:54:07.323Z,100.00
2022-10-08T06:56:37.886Z,100.00
2022-10-08T06:59:06.743Z,100.00
2022-10-08T07:01:35.423Z,100.00
2022-10-08T07:04:04.687Z,100.00
2022-10-08T07:06:32.158Z,100.00
2022-10-08T07:09:01.148Z,100.00
2022-10-08T07:11:31.351Z,100.00
2022-10-08T07:13:58.755Z,100.00
2022-10-08T07:16:27.719Z,100.00
2022-10-08T07:18:58.538Z,98.74
2022-10-08T07:21:26.880Z,92.02
2022-10-08T07:23:54.425Z,85.77
2022-10-08T07:26:27.413Z,69.96
2022-10-08T07:29:08.339Z,52.63
2022-10-08T07:31:37.755Z,46.50
2022-10-08T07:34:10.224Z,44.60
2022-10-08T07:36:39.385Z,42.54
2022-10-08T07:39:14.798Z,40.91
2022-10-08T07:41:42.368Z,38.53
2022-10-08T07:44:12.152Z,37.26
2022-10-08T07:46:45.277Z,38.08
2022-10-08T07:49:13.864Z,36.98
2022-10-08T07:51:43.992Z,35.35
2022-10-08T07:54:17.487Z,35.36
2022-10-08T07:56:45.457Z,32.51
2022-10-08T07:59:15.193Z,34.26
2022-10-08T08:01:43.734Z,32.37
2022-10-08T08:04:12.374Z,32.06
2022-10-08T08:06:47.843Z,32.01
2022-10-08T08:09:16.428Z,31.33
2022-10-08T08:11:43.800Z,29.39
2022-10-08T08:14:10.937Z,30.46
2022-10-08T08:16:38.860Z,30.54
2022-10-08T08:19:06.445Z,29.69
2022-10-08T08:21:37.145Z,29.02
2022-10-08T08:24:15.296Z,28.38
2022-10-08T08:26:43.799Z,28.98
2022-10-08T08:29:17.801Z,29.06
2022-10-08T08:31:48.350Z,28.23
2022-10-08T08:34:22.436Z,28.07
2022-10-08T08:36:53.743Z,29.62
2022-10-08T08:39:29.606Z,28.63
2022-10-08T08:42:43.796Z,28.59
2022-10-08T08:45:48.578Z,29.09
2022-10-08T08:48:24.891Z,29.54
2022-10-08T08:50:56.349Z,29.42
2022-10-08T08:53:23.743Z,28.77
2022-10-08T08:55:55.545Z,29.29
2022-10-08T08:58:36.719Z,29.39
2022-10-08T09:01:09.904Z,28.65
2022-10-08T09:03:45.030Z,29.70
2022-10-08T09:06:20.019Z,30.60
2022-10-08T09:08:51.473Z,30.77
2022-10-08T09:11:21.357Z,31.21
2022-10-08T09:14:10.884Z,29.39
2022-10-08T09:16:39.530Z,29.91
2022-10-08T09:19:07.188Z,29.98
2022-10-08T09:21:35.088Z,29.44
2022-10-08T09:24:03.200Z,28.75
2022-10-08T09:26:36.859Z,25.82
2022-10-08T09:29:06.212Z,23.87
2022-10-08T09:31:39.447Z,21.69
2022-10-08T09:34:18.134Z,22.72
2022-10-08T09:37:01.900Z,23.51
2022-10-08T09:39:35.642Z,22.27
2022-10-08T09:42:08.615Z,22.55
2022-10-08T09:44:51.164Z,22.88
2022-10-08T09:47:25.070Z,24.42
2022-10-08T09:50:21.902Z,24.34
2022-10-08T09:52:53.611Z,23.55
2022-10-08T09:55:27.944Z,25.03
2022-10-08T09:58:03.587Z,25.58
2022-10-08T10:00:39.691Z,26.85
2022-10-08T10:03:18.105Z,25.39
2022-10-08T10:05:52.705Z,25.30
2022-10-08T10:09:10.883Z,29.33
2022-10-08T10:11:49.021Z,31.35
2022-10-08T10:14:28.632Z,35.92
2022-10-08T10:17:04.978Z,42.05
2022-10-08T10:19:49.949Z,47.21
2022-10-08T10:23:00.816Z,50.74
2022-10-08T10:26:06.565Z,51.51
2022-10-08T10:28:43.417Z,54.17
2022-10-08T10:31:23.719Z,56.12
2022-10-08T10:34:01.786Z,58.57
2022-10-08T10:39:40.821Z,59.30
2022-10-08T10:42:27.757Z,58.11
2022-10-08T10:45:20.399Z,58.51
2022-10-08T10:47:51.357Z,57.70
2022-10-08T10:50:43.719Z,56.25
2022-10-08T10:53:45.366Z,53.80
2022-10-08T10:56:20.386Z,51.38
2022-10-08T10:59:05.474Z,41.68
2022-10-08T11:01:53.562Z,41.40
2022-10-08T11:04:26.574Z,48.32
2022-10-08T11:07:33.860Z,50.83
2022-10-08T11:10:15.645Z,48.12
2022-10-08T11:12:58.841Z,45.42
2022-10-08T11:16:01.879Z,43.34
2022-10-08T11:18:51.428Z,40.42
2022-10-08T11:21:51.707Z,40.86
2022-10-08T11:24:55.571Z,41.11
2022-10-08T11:27:41.030Z,40.12
2022-10-08T11:30:30.407Z,40.79
2022-10-08T11:32:59.010Z,41.70
2022-10-08T11:35:43.226Z,41.69
2022-10-08T11:38:25.670Z,40.84
2022-10-08T11:41:07.228Z,43.73
2022-10-08T11:44:00.651Z,45.44
2022-10-08T11:46:36.729Z,43.52
2022-10-08T11:49:25.384Z,43.62
2022-10-08T11:51:54.162Z,43.70
2022-10-08T11:54:34.583Z,44.88
2022-10-08T11:57:25.578Z,43.73
2022-10-08T12:00:31.397Z,42.59
2022-10-08T12:03:00.114Z,42.61
2022-10-08T12:06:20.736Z,43.02
2022-10-08T12:09:07.265Z,42.81
2022-10-08T12:11:40.162Z,42.88
2022-10-08T12:14:14.389Z,42.45
2022-10-08T12:16:57.157Z,43.21
2022-10-08T12:19:33.860Z,45.54
2022-10-08T12:22:16.665Z,44.51
2022-10-08T12:24:49.593Z,46.53
2022-10-08T12:27:17.761Z,45.95
2022-10-08T12:30:03.810Z,45.20
2022-10-08T12:32:40.179Z,45.86
2022-10-08T12:35:29.562Z,45.91
2022-10-08T12:38:17.869Z,47.22
2022-10-08T12:41:06.124Z,46.54
2022-10-08T12:43:56.435Z,48.07
2022-10-08T12:46:53.149Z,51.08
2022-10-08T12:49:41.625Z,49.53
2022-10-08T12:52:23.130Z,51.05
2022-10-08T12:54:55.422Z,51.75
2022-10-08T12:57:43.307Z,54.32
2022-10-08T13:00:26.025Z,54.08
2022-10-08T13:03:22.800Z,55.91
2022-10-08T13:05:50.135Z,54.03
2022-10-08T13:08:36.101Z,54.58
2022-10-08T13:11:14.693Z,55.87
2022-10-08T13:13:49.530Z,57.70
2022-10-08T13:16:25.973Z,57.36
2022-10-08T13:18:58.518Z,58.36
2022-10-08T13:21:31.863Z,59.59
2022-10-08T13:24:01.163Z,61.27
2022-10-08T13:26:44.466Z,64.00
2022-10-08T13:29:21.617Z,64.48
2022-10-08T13:32:13.245Z,64.82
2022-10-08T13:34:44.967Z,65.09
2022-10-08T13:37:16.538Z,66.66
2022-10-08T13:40:26.401Z,67.85
2022-10-08T13:42:58.216Z,67.99
2022-10-08T13:45:29.254Z,70.22
2022-10-08T13:47:59.125Z,69.95
2022-10-08T13:50:26.412Z,70.15
2022-10-08T13:52:57.717Z,72.68
2022-10-08T13:55:32.429Z,71.31
2022-10-08T13:58:02.766Z,74.14
2022-10-08T14:00:31.653Z,74.58
2022-10-08T14:02:59.476Z,75.60
2022-10-08T14:05:30.041Z,77.56
2022-10-08T14:08:03.057Z,76.53
2022-10-08T14:10:30.689Z,77.17
2022-10-08T14:12:58.008Z,77.78
2022-10-08T14:15:25.215Z,78.70
2022-10-08T14:17:55.869Z,78.50
2022-10-08T14:20:23.101Z,79.28
2022-10-08T14:22:51.157Z,80.39
2022-10-08T14:25:22.774Z,81.31
2022-10-08T14:27:51.247Z,81.02
2022-10-08T14:30:19.349Z,82.24
2022-10-08T14:32:46.944Z,82.71
2022-10-08T14:35:14.459Z,82.83
2022-10-08T14:37:41.623Z,83.28
2022-10-08T14:40:21.225Z,84.13
2022-10-08T14:42:48.822Z,84.56
2022-10-08T14:45:16.323Z,85.15
2022-10-08T14:47:43.589Z,85.85
2022-10-08T14:50:11.051Z,87.11
2022-10-08T14:52:43.929Z,86.47
2022-10-08T14:55:12.114Z,87.84
2022-10-08T14:57:39.367Z,89.11
2022-10-08T15:00:07.787Z,93.04
2022-10-08T15:02:35.029Z,92.28
2022-10-08T15:05:02.641Z,90.03
2022-10-08T15:07:30.811Z,91.33
2022-10-08T15:09:58.461Z,92.87
2022-10-08T15:12:25.749Z,94.15
2022-10-08T15:14:52.904Z,93.28
2022-10-08T15:17:20.218Z,94.96
2022-10-08T15:19:47.435Z,95.45
2022-10-08T15:22:14.642Z,94.88
2022-10-08T15:24:41.847Z,96.38
2022-10-08T15:27:09.114Z,97.23
2022-10-08T15:29:36.640Z,98.31
2022-10-08T15:32:04.122Z,100.00
2022-10-08T15:34:31.338Z,100.00
2022-10-08T15:36:58.508Z,100.00
2022-10-08T15:39:25.887Z,100.00
2022-10-08T15:41:55.334Z,100.00
2022-10-08T15:44:31.053Z,100.00
2022-10-08T15:47:02.106Z,100.00
2022-10-08T15:49:40.499Z,100.00
2022-10-08T15:52:13.080Z,100.00
2022-10-08T15:54:41.705Z,100.00
2022-10-08T15:57:11.913Z,100.00
2022-10-08T15:59:39.307Z,100.00
2022-10-08T16:02:07.382Z,100.00
2022-10-08T16:04:34.768Z,100.00
2022-10-08T16:07:02.048Z,100.00
2022-10-08T16:09:29.418Z,100.00
2022-10-08T16:11:56.599Z,100.00
2022-10-08T16:14:26.631Z,100.00
2022-10-08T16:16:54.682Z,100.00
2022-10-08T16:19:26.193Z,100.00
2022-10-08T16:21:56.582Z,100.00
2022-10-08T16:24:24.800Z,100.00
2022-10-08T16:26:52.815Z,100.00
2022-10-08T16:29:20.390Z,100.00
2022-10-08T16:31:48.087Z,100.00
2022-10-08T16:34:21.745Z,100.00
2022-10-08T16:36:49.821Z,100.00
2022-10-08T16:39:21.100Z,100.00
2022-10-08T16:41:49.777Z,100.00
2022-10-08T16:44:20.407Z,100.00
2022-10-08T16:46:51.811Z,100.00
2022-10-08T16:49:30.090Z,100.00
2022-10-08T16:52:02.367Z,100.00
2022-10-08T16:54:30.361Z,100.00
2022-10-08T16:56:58.918Z,100.00
2022-10-08T16:59:28.788Z,100.00
2022-10-08T17:01:58.863Z,100.00
2022-10-08T17:04:28.768Z,100.00
2022-10-08T17:06:56.297Z,100.00
2022-10-08T17:09:23.552Z,100.00
2022-10-08T17:11:51.802Z,100.00
2022-10-08T17:14:19.146Z,100.00
2022-10-08T17:16:48.391Z,100.00
2022-10-08T17:19:15.616Z,100.00
2022-10-08T17:21:43.146Z,100.00
2022-10-08T17:24:13.728Z,100.00
2022-10-08T17:26:41.994Z,100.00
2022-10-08T17:29:12.247Z,100.00
2022-10-08T17:31:39.970Z,100.00
2022-10-08T17:34:07.817Z,100.00
2022-10-08T17:36:38.874Z,100.00
2022-10-08T17:39:13.710Z,100.00
2022-10-08T17:41:43.500Z,100.00
2022-10-08T17:44:11.901Z,100.00
2022-10-08T17:46:46.235Z,100.00
2022-10-08T17:49:19.707Z,100.00
2022-10-08T17:51:48.123Z,100.00
2022-10-08T17:54:19.794Z,100.00
2022-10-08T17:56:48.479Z,100.00
2022-10-08T17:59:18.395Z,100.00
2022-10-08T18:01:46.069Z,100.00
2022-10-08T18:04:16.789Z,100.00
2022-10-08T18:06:46.398Z,100.00
2022-10-08T18:09:20.927Z,100.00
2022-10-08T18:11:53.213Z,100.00
2022-10-08T18:14:22.153Z,100.00
2022-10-08T18:16:49.891Z,100.00
2022-10-08T18:19:18.284Z,100.00
2022-10-08T18:21:46.313Z,100.00
2022-10-08T18:24:13.951Z,100.00
2022-10-08T18:26:41.336Z,100.00
2022-10-08T18:29:12.122Z,100.00
2022-10-08T18:31:42.223Z,100.00
2022-10-08T18:34:16.068Z,100.00
2022-10-08T18:36:43.809Z,100.00
2022-10-08T18:39:14.899Z,100.00
2022-10-08T18:41:48.038Z,100.00
2022-10-08T18:44:23.029Z,100.00
2022-10-08T18:46:50.995Z,100.00
2022-10-08T18:49:23.976Z,100.00
2022-10-08T18:51:51.202Z,100.00
2022-10-08T18:54:18.511Z,100.00
2022-10-08T18:56:45.719Z,100.00
2022-10-08T18:59:15.344Z,100.00
2022-10-08T19:01:46.434Z,100.00
2022-10-08T19:04:20.783Z,100.00
2022-10-08T19:06:50.709Z,100.00
2022-10-08T19:09:18.195Z,100.00
2022-10-08T19:11:52.532Z,100.00
2022-10-08T19:14:23.226Z,100.00
2022-10-08T19:16:51.013Z,100.00
2022-10-08T19:19:25.295Z,100.00
2022-10-08T19:21:54.334Z,100.00
2022-10-08T19:24:24.993Z,100.00
2022-10-08T19:26:53.064Z,100.00
2022-10-08T19:29:23.766Z,100.00
2022-10-08T19:31:51.367Z,100.00
2022-10-08T19:34:22.509Z,100.00
2022-10-08T19:36:50.794Z,100.00
2022-10-08T19:39:27.451Z,100.00
2022-10-08T19:41:55.108Z,100.00
2022-10-08T19:44:23.609Z,100.00
2022-10-08T19:46:51.034Z,100.00
2022-10-08T19:49:19.324Z,100.00
2022-10-08T19:51:46.729Z,100.00
2022-10-08T19:54:14.690Z,100.00
2022-10-08T19:56:42.450Z,100.00
2022-10-08T19:59:13.898Z,100.00
2022-10-08T20:01:42.757Z,100.00
2022-10-08T20:04:10.966Z,100.00
2022-10-08T20:06:41.564Z,100.00
2022-10-08T20:09:12.123Z,100.00
2022-10-08T20:11:41.594Z,100.00
2022-10-08T20:14:09.414Z,100.00
2022-10-08T20:16:40.685Z,100.00
2022-10-08T20:19:21.014Z,100.00
2022-10-08T20:21:50.286Z,100.00
2022-10-08T20:24:18.918Z,100.00
2022-10-08T20:26:46.412Z,100.00
2022-10-08T20:29:18.359Z,100.00
2022-10-08T20:31:49.727Z,100.00
2022-10-08T20:34:26.800Z,100.00
2022-10-08T20:36:54.858Z,100.00
2022-10-08T20:39:23.200Z,100.00
2022-10-08T20:41:52.847Z,100.00
2022-10-08T20:44:20.566Z,100.00
2022-10-08T20:46:50.720Z,100.00
2022-10-08T20:49:18.853Z,100.00
2022-10-08T20:51:46.105Z,100.00
2022-10-08T20:54:16.609Z,100.00
2022-10-08T20:56:44.292Z,100.00
2022-10-08T20:59:17.579Z,100.00
2022-10-08T21:01:46.060Z,100.00
2022-10-08T21:04:14.036Z,100.00
2022-10-08T21:06:47.996Z,100.00
2022-10-08T21:09:19.028Z,100.00
2022-10-08T21:11:47.300Z,100.00
2022-10-08T21:14:22.594Z,100.00
2022-10-08T21:16:50.176Z,100.00
2022-10-08T21:19:21.562Z,100.00
2022-10-08T21:21:49.188Z,100.00
2022-10-08T21:24:16.937Z,100.00
2022-10-08T21:26:44.213Z,100.00
2022-10-08T21:29:14.509Z,100.00
2022-10-08T21:31:43.083Z,100.00
2022-10-08T21:34:13.033Z,100.00
2022-10-08T21:36:41.953Z,100.00
2022-10-08T21:39:15.710Z,100.00
2022-10-08T21:41:43.253Z,100.00
2022-10-08T21:44:10.613Z,100.00
2022-10-08T21:46:41.535Z,100.00
2022-10-08T21:49:17.466Z,100.00
2022-10-08T21:51:45.151Z,100.00
2022-10-08T21:54:14.118Z,100.00
2022-10-08T21:56:43.121Z,100.00
2022-10-08T21:59:14.279Z,100.00
2022-10-08T22:01:48.060Z,100.00
2022-10-08T22:04:24.587Z,100.00
2022-10-08T22:06:55.580Z,100.00
2022-10-08T22:09:27.444Z,100.00
2022-10-08T22:11:56.544Z,100.00
2022-10-08T22:14:24.367Z,100.00
2022-10-08T22:16:51.757Z,100.00
2022-10-08T22:19:19.194Z,100.00
2022-10-08T22:21:47.186Z,100.00
2022-10-08T22:24:15.337Z,100.00
2022-10-08T22:26:46.795Z,100.00
2022-10-08T22:29:15.098Z,100.00
2022-10-08T22:31:42.944Z,100.00
2022-10-08T22:34:10.664Z,100.00
2022-10-08T22:36:42.022Z,100.00
2022-10-08T22:39:09.932Z,100.00
2022-10-08T22:41:37.764Z,100.00
2022-10-08T22:44:05.614Z,100.00
2022-10-08T22:46:38.388Z,100.00
2022-10-08T22:49:09.566Z,100.00
2022-10-08T22:51:38.081Z,100.00
2022-10-08T22:54:05.920Z,100.00
2022-10-08T22:56:33.725Z,100.00
2022-10-08T22:59:01.485Z,100.00
2022-10-08T23:01:30.836Z,100.00
2022-10-08T23:03:58.326Z,100.00
2022-10-08T23:06:32.070Z,100.00
2022-10-08T23:09:05.959Z,100.00
2022-10-08T23:11:34.697Z,100.00
2022-10-08T23:14:02.561Z,100.00
2022-10-08T23:16:32.393Z,100.00
2022-10-08T23:19:03.488Z,100.00
2022-10-08T23:21:31.347Z,100.00
2022-10-08T23:23:59.403Z,100.00
2022-10-08T23:26:27.592Z,100.00
2022-10-08T23:28:57.606Z,100.00
2022-10-08T23:31:30.908Z,100.00
2022-10-08T23:33:59.265Z,100.00
2022-10-08T23:36:31.811Z,100.00
2022-10-08T23:38:59.406Z,100.00
2022-10-08T23:41:27.819Z,100.00
2022-10-08T23:43:56.725Z,100.00
2022-10-08T23:46:27.086Z,100.00
2022-10-08T23:48:55.261Z,100.00
2022-10-08T23:51:24.762Z,100.00
2022-10-08T23:53:52.779Z,100.00
2022-10-08T23:56:20.903Z,100.00
2022-10-08T23:58:48.939Z,100.00
